Time;durP1;ratioP1;P1;durP2;ratioP2;P2;SDS_P1;SDS_P2;PMS_P1;PMS_P2;Temp;Humidity;BMP_temperature;BMP_pressure;BME280_temperature;BME280_humidity;BME280_pressure;Samples;Min_cycle;Max_cycle;Signal;HPM_P1;HPM_P2
2023/05/30 00:01:49;;;;;;;7.93;2.35;;;14.20;99.90;;;;;;4972572;28;20660;-76
2023/05/30 00:04:21;;;;;;;5.65;2.20;;;14.30;99.90;;;;;;4976897;28;20204;-79
2023/05/30 00:06:55;;;;;;;12.57;2.65;;;14.50;99.90;;;;;;4976160;28;20204;-78
2023/05/30 00:09:26;;;;;;;9.20;3.00;;;14.60;99.90;;;;;;4970527;28;20200;-79
2023/05/30 00:11:58;;;;;;;13.07;3.53;;;14.60;99.90;;;;;;4974603;28;20222;-75
2023/05/30 00:14:29;;;;;;;6.97;4.05;;;14.70;99.90;;;;;;4975997;28;20196;-77
2023/05/30 00:17:00;;;;;;;9.50;3.80;;;14.70;99.90;;;;;;4977018;28;20188;-78
2023/05/30 00:19:31;;;;;;;7.63;3.53;;;14.80;99.90;;;;;;4976887;28;20647;-75
2023/05/30 00:22:05;;;;;;;9.07;3.40;;;14.90;99.90;;;;;;4975415;28;20207;-77
2023/05/30 00:24:36;;;;;;;7.40;1.90;;;15.00;99.90;;;;;;4976958;28;20208;-76
2023/05/30 00:27:08;;;;;;;4.95;2.35;;;15.10;99.90;;;;;;4976882;28;20236;-77
2023/05/30 00:29:39;;;;;;;4.50;2.50;;;15.30;99.90;;;;;;4976020;28;20204;-76
2023/05/30 00:32:10;;;;;;;5.30;2.53;;;15.40;99.90;;;;;;4976183;28;20282;-82
2023/05/30 00:34:42;;;;;;;6.03;2.33;;;15.50;99.90;;;;;;4969798;28;20215;-76
2023/05/30 00:37:15;;;;;;;7.30;2.20;;;15.70;99.90;;;;;;4971562;28;20200;-78
2023/05/30 00:39:46;;;;;;;6.32;2.13;;;15.80;99.90;;;;;;4984847;28;20196;-77
2023/05/30 00:42:17;;;;;;;4.57;1.90;;;16.00;99.90;;;;;;4975451;28;20664;-80
2023/05/30 00:44:48;;;;;;;4.35;1.70;;;16.00;99.90;;;;;;4976614;28;20215;-78
2023/05/30 00:47:20;;;;;;;6.28;1.60;;;16.10;99.90;;;;;;4973878;28;20540;-79
2023/05/30 00:49:51;;;;;;;5.70;2.00;;;16.30;99.90;;;;;;4976305;28;20287;-78
2023/05/30 00:52:27;;;;;;;6.43;1.92;;;16.40;99.90;;;;;;4976157;28;20216;-80
2023/05/30 00:55:02;;;;;;;4.90;1.40;;;16.50;99.90;;;;;;4956959;28;20197;-80
2023/05/30 00:57:34;;;;;;;3.92;1.27;;;16.60;99.90;;;;;;4975067;28;20207;-76
2023/05/30 01:00:07;;;;;;;6.88;1.85;;;16.70;99.90;;;;;;4975444;28;20262;-77
2023/05/30 01:02:39;;;;;;;5.07;1.48;;;16.80;99.90;;;;;;4975287;28;20260;-79
2023/05/30 01:05:12;;;;;;;5.65;1.55;;;16.90;99.90;;;;;;4976003;28;20188;-80
2023/05/30 01:07:46;;;;;;;3.42;1.50;;;17.00;99.90;;;;;;4976093;28;20216;-79
2023/05/30 01:10:18;;;;;;;4.65;1.55;;;17.10;99.90;;;;;;4976663;28;20647;-77
2023/05/30 01:12:59;;;;;;;2.80;1.10;;;17.20;99.90;;;;;;4957204;28;20681;-81
2023/05/30 01:15:36;;;;;;;2.78;1.00;;;17.20;99.90;;;;;;4966690;28;20742;-82
2023/05/30 01:18:19;;;;;;;4.43;1.42;;;17.40;99.90;;;;;;4975820;28;20198;-84
2023/05/30 01:20:53;;;;;;;2.25;1.08;;;17.40;99.90;;;;;;4974244;28;20674;-76
2023/05/30 01:23:44;;;;;;;2.63;1.05;;;17.50;99.90;;;;;;4972877;28;20200;-76
2023/05/30 01:26:38;;;;;;;4.93;1.17;;;17.60;99.90;;;;;;4974721;28;20196;-77
2023/05/30 01:29:20;;;;;;;3.47;1.20;;;17.70;99.90;;;;;;4973333;28;20200;-76
2023/05/30 01:31:52;;;;;;;4.53;1.00;;;17.80;99.90;;;;;;4972823;28;20219;-76
2023/05/30 01:34:25;;;;;;;1.75;0.80;;;17.90;99.90;;;;;;4973762;28;20230;-73
2023/05/30 01:36:57;;;;;;;4.50;0.85;;;17.90;99.90;;;;;;4974785;28;20204;-75
2023/05/30 01:39:28;;;;;;;6.03;0.80;;;18.00;99.90;;;;;;4972592;28;20193;-73
2023/05/30 01:42:05;;;;;;;2.72;0.98;;;18.10;99.90;;;;;;4969879;28;20198;-78
2023/05/30 01:44:43;;;;;;;3.15;0.75;;;18.20;99.90;;;;;;4970545;28;20255;-73
2023/05/30 01:47:20;;;;;;;1.95;0.80;;;18.20;99.90;;;;;;4971106;28;20196;-75
2023/05/30 01:50:02;;;;;;;2.13;0.73;;;18.30;99.90;;;;;;4971802;28;20214;-74
2023/05/30 01:52:36;;;;;;;2.65;0.80;;;18.40;99.90;;;;;;4975025;28;20623;-76
2023/05/30 01:55:10;;;;;;;4.15;0.68;;;18.50;99.90;;;;;;4975227;28;20191;-76
2023/05/30 01:57:44;;;;;;;2.70;0.70;;;18.60;99.90;;;;;;4974834;28;20189;-77
2023/05/30 02:00:20;;;;;;;1.67;0.82;;;18.60;99.90;;;;;;5005967;23;20235;-73
2023/05/30 02:02:53;;;;;;;3.55;1.05;;;18.70;99.90;;;;;;4994373;28;20654;-73
2023/05/30 02:05:24;;;;;;;3.63;1.00;;;18.80;99.90;;;;;;4994309;28;20192;-74
2023/05/30 02:07:55;;;;;;;3.42;0.88;;;18.90;99.90;;;;;;4994313;28;20564;-75
2023/05/30 02:10:26;;;;;;;3.97;1.05;;;18.90;99.90;;;;;;4994128;28;20203;-74
2023/05/30 02:12:57;;;;;;;3.25;0.95;;;19.00;99.90;;;;;;4993303;28;20217;-73
2023/05/30 02:15:30;;;;;;;2.70;1.15;;;19.10;99.90;;;;;;4994244;28;20308;-74
2023/05/30 02:18:01;;;;;;;3.13;0.80;;;19.10;99.90;;;;;;4994370;28;20661;-74
2023/05/30 02:20:32;;;;;;;2.00;0.60;;;19.20;99.90;;;;;;4994064;28;20192;-75
2023/05/30 02:23:03;;;;;;;2.78;0.88;;;19.20;99.90;;;;;;4994126;28;20235;-73
2023/05/30 02:25:34;;;;;;;5.20;1.02;;;19.30;99.90;;;;;;4993917;28;20282;-74
2023/05/30 02:28:05;;;;;;;2.60;1.00;;;19.40;99.90;;;;;;4994098;28;20199;-74
2023/05/30 02:30:38;;;;;;;3.78;0.90;;;19.50;99.90;;;;;;4994385;28;20196;-74
2023/05/30 02:33:10;;;;;;;1.70;0.70;;;19.50;99.90;;;;;;4993896;28;20220;-73
2023/05/30 02:35:41;;;;;;;3.42;0.70;;;19.50;99.90;;;;;;4993966;28;20199;-74
2023/05/30 02:38:12;;;;;;;2.63;1.02;;;19.60;99.90;;;;;;4993735;28;20573;-74
2023/05/30 02:40:43;;;;;;;1.67;0.70;;;19.70;99.90;;;;;;4993933;28;20710;-74
2023/05/30 02:43:14;;;;;;;1.85;0.50;;;19.90;99.90;;;;;;4993900;28;20191;-74
2023/05/30 02:45:47;;;;;;;3.58;0.70;;;19.90;99.90;;;;;;4993957;28;20564;-74
2023/05/30 02:48:18;;;;;;;3.58;0.60;;;20.00;99.90;;;;;;4993909;28;20192;-74
2023/05/30 02:50:49;;;;;;;2.17;0.90;;;20.10;99.90;;;;;;4993776;28;20643;-74
2023/05/30 02:53:20;;;;;;;5.20;1.00;;;20.20;99.90;;;;;;4993559;28;20219;-72
2023/05/30 02:55:51;;;;;;;1.63;0.50;;;20.10;99.90;;;;;;4993782;28;20222;-71
2023/05/30 02:58:23;;;;;;;1.73;0.50;;;20.00;99.90;;;;;;4994023;28;20556;-72
2023/05/30 03:00:56;;;;;;;1.20;0.40;;;20.00;99.90;;;;;;4974239;28;20242;-73
2023/05/30 03:03:27;;;;;;;1.75;0.40;;;20.00;99.90;;;;;;4974384;28;20563;-74
2023/05/30 03:05:59;;;;;;;1.45;0.60;;;20.10;99.90;;;;;;4974279;28;20189;-73
2023/05/30 03:08:31;;;;;;;0.88;0.40;;;20.10;99.90;;;;;;4974087;28;20200;-74
2023/05/30 03:11:02;;;;;;;2.38;0.77;;;20.10;99.90;;;;;;4974098;28;20189;-73
2023/05/30 03:13:33;;;;;;;1.63;0.50;;;20.20;99.90;;;;;;4974114;28;20256;-73
2023/05/30 03:16:06;;;;;;;1.60;0.50;;;20.20;99.90;;;;;;4974238;28;20192;-74
2023/05/30 03:18:37;;;;;;;1.90;0.47;;;20.30;99.90;;;;;;4974496;28;20193;-74
2023/05/30 03:21:08;;;;;;;2.50;0.52;;;20.30;99.90;;;;;;4974174;28;20192;-74
2023/05/30 03:23:39;;;;;;;2.08;0.70;;;20.40;99.90;;;;;;4975085;28;20196;-73
2023/05/30 03:26:10;;;;;;;3.08;0.60;;;20.40;99.90;;;;;;4977881;28;20192;-74
2023/05/30 03:28:41;;;;;;;2.42;0.50;;;20.40;99.90;;;;;;4977769;28;20192;-74
2023/05/30 03:31:15;;;;;;;2.47;0.60;;;20.50;99.90;;;;;;4977732;28;20196;-75
2023/05/30 03:33:46;;;;;;;2.55;0.82;;;20.50;99.90;;;;;;4977993;28;20619;-74
2023/05/30 03:36:17;;;;;;;2.08;0.60;;;20.60;99.90;;;;;;4977456;28;20197;-74
2023/05/30 03:38:48;;;;;;;1.17;0.45;;;20.60;99.90;;;;;;4977615;28;20644;-74
2023/05/30 03:41:19;;;;;;;1.75;0.50;;;20.60;99.90;;;;;;4977607;28;20219;-74
2023/05/30 03:43:50;;;;;;;1.13;0.40;;;20.60;99.90;;;;;;4977906;28;20192;-74
2023/05/30 03:46:23;;;;;;;0.82;0.40;;;20.70;99.90;;;;;;4977482;28;20193;-74
2023/05/30 03:48:54;;;;;;;1.73;0.47;;;20.70;99.90;;;;;;4977696;28;20196;-74
2023/05/30 03:51:26;;;;;;;1.65;0.55;;;20.70;99.90;;;;;;4977503;28;20189;-74
2023/05/30 03:53:57;;;;;;;1.20;0.50;;;20.60;99.90;;;;;;4977315;28;20224;-74
2023/05/30 03:56:28;;;;;;;0.45;0.30;;;20.60;99.90;;;;;;4977395;28;20228;-73
2023/05/30 03:59:00;;;;;;;2.30;0.50;;;20.70;99.90;;;;;;4977137;28;20244;-73
2023/05/30 04:01:33;;;;;;;0.82;0.40;;;20.80;99.90;;;;;;4977224;28;20733;-73
2023/05/30 04:04:04;;;;;;;4.10;0.40;;;20.80;99.90;;;;;;4977303;28;20193;-74
2023/05/30 04:06:36;;;;;;;0.98;0.40;;;20.80;99.90;;;;;;4977018;28;20198;-74
2023/05/30 04:09:07;;;;;;;1.88;0.50;;;20.70;99.90;;;;;;4977115;28;20192;-74
2023/05/30 04:11:38;;;;;;;3.75;0.50;;;20.70;99.90;;;;;;4977014;28;20188;-73
2023/05/30 04:14:09;;;;;;;0.82;0.55;;;20.70;99.90;;;;;;4976909;28;20224;-76
2023/05/30 04:16:43;;;;;;;2.47;0.47;;;20.70;99.90;;;;;;4976978;28;20648;-74
2023/05/30 04:19:14;;;;;;;1.23;0.50;;;20.70;99.90;;;;;;4977008;28;20196;-74
2023/05/30 04:21:45;;;;;;;2.40;0.35;;;20.70;99.90;;;;;;4976697;28;20203;-74
2023/05/30 04:24:16;;;;;;;3.80;0.50;;;20.70;99.90;;;;;;4976903;28;20188;-74
2023/05/30 04:26:48;;;;;;;1.55;0.45;;;20.70;99.90;;;;;;4976829;28;20196;-74
2023/05/30 04:29:22;;;;;;;1.42;0.30;;;20.80;99.90;;;;;;4976777;28;20196;-74
2023/05/30 04:31:56;;;;;;;3.28;0.60;;;20.80;99.90;;;;;;4976988;28;20196;-74
2023/05/30 04:34:27;;;;;;;2.83;0.40;;;20.80;99.90;;;;;;4976016;28;20220;-74
2023/05/30 04:36:58;;;;;;;2.20;0.68;;;20.90;99.90;;;;;;4976092;28;20195;-74
2023/05/30 04:39:29;;;;;;;4.22;0.80;;;20.90;99.90;;;;;;4976587;28;20568;-74
2023/05/30 04:42:00;;;;;;;1.90;0.40;;;20.90;99.90;;;;;;4976419;28;20548;-74
2023/05/30 04:44:37;;;;;;;1.63;0.30;;;20.90;99.90;;;;;;4976447;28;20199;-74
2023/05/30 04:47:11;;;;;;;2.42;0.63;;;20.90;99.90;;;;;;4976382;28;20283;-74
2023/05/30 04:49:42;;;;;;;2.25;0.60;;;20.90;99.90;;;;;;4976229;28;20555;-74
2023/05/30 04:52:13;;;;;;;2.00;0.68;;;20.90;99.90;;;;;;4976274;28;20196;-74
2023/05/30 04:54:44;;;;;;;1.58;0.40;;;20.90;99.90;;;;;;4976248;28;20227;-73
2023/05/30 04:57:15;;;;;;;0.40;0.20;;;20.90;99.90;;;;;;4976195;28;20539;-73
2023/05/30 04:59:47;;;;;;;2.17;0.40;;;20.80;99.90;;;;;;4975799;28;20240;-75
2023/05/30 05:02:21;;;;;;;2.20;0.45;;;20.80;99.90;;;;;;4976009;28;20196;-74
2023/05/30 05:04:52;;;;;;;0.95;0.40;;;20.90;99.90;;;;;;4976257;28;20659;-74
2023/05/30 05:07:23;;;;;;;1.25;0.43;;;20.90;99.90;;;;;;4975999;28;20192;-74
2023/05/30 05:09:54;;;;;;;1.00;0.35;;;20.90;99.90;;;;;;4975927;28;20580;-74
2023/05/30 05:12:25;;;;;;;1.15;0.43;;;21.00;99.90;;;;;;4975927;28;20232;-74
2023/05/30 05:14:58;;;;;;;0.95;0.30;;;20.90;99.90;;;;;;4975777;28;20242;-74
2023/05/30 05:17:34;;;;;;;1.48;0.40;;;20.90;99.90;;;;;;4975788;28;20192;-74
2023/05/30 05:20:07;;;;;;;1.90;0.40;;;20.90;99.90;;;;;;4975641;28;20192;-74
2023/05/30 05:22:38;;;;;;;1.17;0.47;;;20.80;99.90;;;;;;4975743;28;20196;-74
2023/05/30 05:25:10;;;;;;;1.73;0.52;;;20.80;99.90;;;;;;4975794;28;20196;-74
2023/05/30 05:27:42;;;;;;;1.90;0.77;;;20.80;99.90;;;;;;4975650;28;20268;-73
2023/05/30 05:30:14;;;;;;;1.75;0.40;;;20.70;99.90;;;;;;4975592;28;20219;-77
2023/05/30 05:32:47;;;;;;;2.42;0.57;;;20.70;99.90;;;;;;4975306;28;20644;-73
2023/05/30 05:35:18;;;;;;;0.90;0.40;;;20.70;99.90;;;;;;4975676;28;20216;-74
2023/05/30 05:37:50;;;;;;;1.00;0.40;;;20.70;99.90;;;;;;4975500;28;20188;-74
2023/05/30 05:40:22;;;;;;;1.92;0.50;;;20.70;99.90;;;;;;4975627;28;20563;-72
2023/05/30 05:42:53;;;;;;;2.17;0.70;;;20.60;99.90;;;;;;4975431;28;20250;-74
2023/05/30 05:45:24;;;;;;;1.77;0.52;;;20.60;99.90;;;;;;4975344;28;20200;-74
2023/05/30 05:47:57;;;;;;;0.60;0.50;;;20.50;99.90;;;;;;4974913;28;20546;-74
2023/05/30 05:50:28;;;;;;;2.47;0.50;;;20.50;99.90;;;;;;4975466;28;20196;-74
2023/05/30 05:52:59;;;;;;;0.60;0.32;;;20.50;99.90;;;;;;4975220;28;20200;-73
2023/05/30 05:55:31;;;;;;;1.10;0.50;;;20.50;99.90;;;;;;4975043;28;20220;-74
2023/05/30 05:58:02;;;;;;;1.75;0.50;;;20.50;99.90;;;;;;4975063;28;20192;-74
2023/05/30 06:00:33;;;;;;;1.05;0.30;;;20.40;99.90;;;;;;4974852;28;20247;-73
2023/05/30 06:03:06;;;;;;;1.75;0.50;;;20.40;99.90;;;;;;4974869;28;20561;-74
2023/05/30 06:05:37;;;;;;;1.30;0.40;;;20.40;99.90;;;;;;4975059;28;20231;-74
2023/05/30 06:08:08;;;;;;;0.50;0.32;;;20.30;99.90;;;;;;4975050;28;20196;-74
2023/05/30 06:10:40;;;;;;;0.90;0.40;;;20.30;99.90;;;;;;4974882;28;20198;-74
2023/05/30 06:13:11;;;;;;;0.47;0.40;;;20.20;99.90;;;;;;4974973;28;20206;-74
2023/05/30 06:15:42;;;;;;;0.98;0.50;;;20.10;99.90;;;;;;4975002;28;20224;-74
2023/05/30 06:18:15;;;;;;;1.30;0.40;;;20.00;99.90;;;;;;4974846;28;20196;-74
2023/05/30 06:20:46;;;;;;;2.00;0.50;;;19.90;99.90;;;;;;4974831;28;20201;-74
2023/05/30 06:23:17;;;;;;;1.13;0.40;;;19.80;99.90;;;;;;4974770;28;20196;-74
2023/05/30 06:25:48;;;;;;;2.92;0.50;;;19.80;99.90;;;;;;4974755;28;20630;-74
2023/05/30 06:28:19;;;;;;;1.33;0.50;;;19.70;99.90;;;;;;4974748;28;20644;-74
2023/05/30 06:30:50;;;;;;;3.05;0.60;;;19.60;99.90;;;;;;4974578;28;20199;-74
2023/05/30 06:33:24;;;;;;;2.55;0.50;;;19.50;99.90;;;;;;4974648;28;20279;-74
2023/05/30 06:35:55;;;;;;;1.65;0.50;;;19.50;99.90;;;;;;4974668;28;20311;-74
2023/05/30 06:38:26;;;;;;;1.52;0.45;;;19.40;99.90;;;;;;4972809;28;20210;-74
2023/05/30 06:40:57;;;;;;;2.95;0.55;;;19.30;99.90;;;;;;4972028;28;20204;-74
2023/05/30 06:43:28;;;;;;;2.28;0.60;;;19.20;99.90;;;;;;4971928;28;20603;-74
2023/05/30 06:45:59;;;;;;;4.07;0.52;;;19.20;99.90;;;;;;4972943;28;20200;-74
2023/05/30 06:48:32;;;;;;;2.55;0.70;;;19.10;99.90;;;;;;4969570;28;20201;-74
2023/05/30 06:51:03;;;;;;;2.53;0.60;;;19.00;99.90;;;;;;4974290;28;20200;-74
2023/05/30 06:53:35;;;;;;;3.25;0.70;;;19.00;99.90;;;;;;4970491;28;20283;-74
2023/05/30 06:56:06;;;;;;;1.65;0.55;;;18.90;99.90;;;;;;4974155;28;20552;-74
2023/05/30 06:58:37;;;;;;;1.80;0.60;;;18.90;99.90;;;;;;4972800;28;20707;-74
2023/05/30 07:01:08;;;;;;;1.70;0.60;;;18.80;99.90;;;;;;4973026;28;20196;-74
2023/05/30 07:03:43;;;;;;;2.35;0.85;;;18.70;99.90;;;;;;4977447;28;20683;-74
2023/05/30 07:06:14;;;;;;;1.95;1.00;;;18.60;99.90;;;;;;4967794;28;20663;-75
2023/05/30 07:08:46;;;;;;;2.65;0.98;;;18.50;99.90;;;;;;4970119;28;20207;-74
2023/05/30 07:11:17;;;;;;;2.58;0.80;;;18.50;99.90;;;;;;4966858;28;20294;-75
2023/05/30 07:13:48;;;;;;;1.65;0.88;;;18.40;99.90;;;;;;4976821;28;20200;-74
2023/05/30 07:16:19;;;;;;;1.70;0.90;;;18.30;99.90;;;;;;4975269;28;20200;-74
2023/05/30 07:18:52;;;;;;;1.00;0.70;;;18.20;99.90;;;;;;4968309;28;20204;-74
2023/05/30 07:21:26;;;;;;;1.70;0.70;;;18.10;99.90;;;;;;4974079;28;20211;-74
2023/05/30 07:23:57;;;;;;;2.45;0.90;;;18.10;99.90;;;;;;4972416;28;20205;-74
2023/05/30 07:26:29;;;;;;;1.85;1.00;;;18.00;99.90;;;;;;4975681;28;20200;-74
2023/05/30 07:29:00;;;;;;;1.00;0.77;;;17.90;99.90;;;;;;4976943;28;20204;-74
2023/05/30 07:31:31;;;;;;;1.88;0.90;;;17.90;99.90;;;;;;4976918;28;20211;-73
2023/05/30 07:34:04;;;;;;;2.45;0.90;;;17.80;99.90;;;;;;4975824;28;20196;-74
2023/05/30 07:36:35;;;;;;;3.50;0.88;;;17.70;99.90;;;;;;4975295;28;20215;-74
2023/05/30 07:39:06;;;;;;;2.15;0.93;;;17.60;99.90;;;;;;4975593;28;20656;-74
2023/05/30 07:41:37;;;;;;;2.28;0.90;;;17.40;99.90;;;;;;4976156;28;20279;-74
2023/05/30 07:44:08;;;;;;;3.42;1.10;;;17.30;99.90;;;;;;4975547;28;20652;-74
2023/05/30 07:46:40;;;;;;;6.07;0.93;;;17.20;99.90;;;;;;4974970;28;20240;-74
2023/05/30 07:49:13;;;;;;;3.97;1.38;;;17.10;99.90;;;;;;4975099;28;20204;-74
2023/05/30 07:51:44;;;;;;;2.70;1.00;;;17.00;99.90;;;;;;4982772;28;20204;-74
2023/05/30 07:54:15;;;;;;;2.20;1.38;;;16.90;99.90;;;;;;4976918;28;20251;-74
2023/05/30 07:56:46;;;;;;;2.88;1.52;;;16.90;99.90;;;;;;4976169;28;20196;-74
2023/05/30 07:59:17;;;;;;;3.42;1.45;;;16.80;99.90;;;;;;4976687;28;20244;-74
2023/05/30 08:01:51;;;;;;;3.03;1.55;;;16.80;99.90;;;;;;4976045;28;20196;-74
2023/05/30 08:04:24;;;;;;;2.80;1.40;;;16.70;99.90;;;;;;4977275;28;20219;-74
2023/05/30 08:06:55;;;;;;;3.17;1.40;;;16.80;99.90;;;;;;4964399;28;20192;-74
2023/05/30 08:09:26;;;;;;;2.40;1.20;;;16.70;99.90;;;;;;4973846;28;20223;-74
2023/05/30 08:11:57;;;;;;;2.53;1.30;;;16.70;99.90;;;;;;4973685;28;20203;-74
2023/05/30 08:14:28;;;;;;;2.38;1.45;;;16.60;99.90;;;;;;4975858;28;20709;-74
2023/05/30 08:16:59;;;;;;;3.13;1.73;;;16.60;99.90;;;;;;4974509;28;20207;-74
2023/05/30 08:19:32;;;;;;;5.70;2.15;;;16.60;99.90;;;;;;4978101;28;20214;-74
2023/05/30 08:22:04;;;;;;;4.30;1.63;;;16.60;99.90;;;;;;4975460;28;20204;-73
2023/05/30 08:24:35;;;;;;;3.83;1.58;;;16.60;99.90;;;;;;4972511;28;20215;-74
2023/05/30 08:27:06;;;;;;;3.63;1.60;;;16.70;99.90;;;;;;4974339;28;20201;-74
2023/05/30 08:29:38;;;;;;;3.33;1.70;;;16.70;99.90;;;;;;4974531;28;20283;-74
2023/05/30 08:32:09;;;;;;;8.90;1.65;;;16.60;99.90;;;;;;4971403;28;20204;-74
2023/05/30 08:34:42;;;;;;;3.92;1.75;;;16.70;99.90;;;;;;4974632;28;20224;-74
2023/05/30 08:37:14;;;;;;;4.65;1.92;;;16.70;99.90;;;;;;4975646;28;20204;-74
2023/05/30 08:39:45;;;;;;;3.88;1.73;;;16.80;99.90;;;;;;4974429;28;20231;-74
2023/05/30 08:42:16;;;;;;;5.20;1.42;;;16.80;99.90;;;;;;4974798;28;20193;-74
2023/05/30 08:44:47;;;;;;;3.55;1.50;;;16.80;99.90;;;;;;4968144;28;20208;-74
2023/05/30 08:47:22;;;;;;;5.38;1.85;;;16.80;99.90;;;;;;4970914;28;20196;-74
2023/05/30 08:49:56;;;;;;;3.10;1.30;;;16.80;99.90;;;;;;4973943;28;20669;-74
2023/05/30 08:52:30;;;;;;;3.60;1.45;;;16.80;99.90;;;;;;4973420;28;20226;-73
2023/05/30 08:55:13;;;;;;;2.42;1.30;;;16.70;99.90;;;;;;4973193;28;20212;-73
2023/05/30 08:57:52;;;;;;;3.97;1.38;;;16.80;99.90;;;;;;4975501;28;20200;-73
2023/05/30 09:00:23;;;;;;;2.95;1.33;;;16.70;99.90;;;;;;4967533;28;20267;-72
2023/05/30 09:02:57;;;;;;;2.55;1.30;;;16.70;99.90;;;;;;4974626;28;20203;-73
2023/05/30 09:05:31;;;;;;;2.85;1.30;;;16.70;99.90;;;;;;4965573;28;20209;-73
2023/05/30 09:08:03;;;;;;;3.30;1.50;;;16.70;99.90;;;;;;4974355;28;20205;-73
2023/05/30 09:10:35;;;;;;;3.75;1.30;;;16.60;99.90;;;;;;4972971;28;20208;-73
2023/05/30 09:13:07;;;;;;;3.35;1.50;;;16.70;99.90;;;;;;4974889;28;20204;-72
2023/05/30 09:15:38;;;;;;;4.00;1.08;;;16.60;99.90;;;;;;4973967;28;20695;-73
2023/05/30 09:18:09;;;;;;;3.17;1.50;;;16.60;99.90;;;;;;4974414;28;20205;-73
2023/05/30 09:20:43;;;;;;;4.70;1.20;;;16.60;99.90;;;;;;4970782;28;20200;-73
2023/05/30 09:23:14;;;;;;;7.20;1.25;;;16.50;99.90;;;;;;4974768;28;20196;-73
2023/05/30 09:25:47;;;;;;;1.85;1.17;;;16.40;99.90;;;;;;4971779;28;20193;-73
2023/05/30 09:28:25;;;;;;;1.73;0.98;;;16.50;99.90;;;;;;4962237;28;20258;-73
2023/05/30 09:31:00;;;;;;;2.47;1.30;;;16.40;99.90;;;;;;4970204;28;20208;-73
2023/05/30 09:33:46;;;;;;;1.80;1.13;;;16.40;99.90;;;;;;4970769;28;20241;-73
2023/05/30 09:36:24;;;;;;;4.22;1.80;;;16.40;99.90;;;;;;4962749;28;20231;-72
2023/05/30 09:38:59;;;;;;;3.00;1.48;;;16.30;99.90;;;;;;4974433;28;20200;-73
2023/05/30 09:41:30;;;;;;;4.25;1.40;;;16.20;99.90;;;;;;4973522;28;20708;-73
2023/05/30 09:44:02;;;;;;;2.33;1.50;;;16.10;99.90;;;;;;4972192;28;20200;-73
2023/05/30 09:46:35;;;;;;;2.42;1.50;;;16.10;99.90;;;;;;4973003;28;20219;-73
2023/05/30 09:49:14;;;;;;;3.88;1.50;;;16.10;99.90;;;;;;4974435;28;20203;-73
2023/05/30 09:51:47;;;;;;;3.10;1.35;;;16.00;99.90;;;;;;4970111;28;20251;-73
2023/05/30 09:54:18;;;;;;;4.57;1.40;;;16.00;99.90;;;;;;4972240;28;20664;-73
2023/05/30 09:56:50;;;;;;;3.55;1.50;;;16.00;99.90;;;;;;4973058;28;20220;-73
2023/05/30 09:59:24;;;;;;;2.72;1.48;;;16.00;99.90;;;;;;4970423;28;20326;-73
2023/05/30 10:01:55;;;;;;;2.15;1.13;;;15.90;99.90;;;;;;4970669;28;20214;-73
2023/05/30 10:04:27;;;;;;;3.70;1.75;;;15.90;99.90;;;;;;4968895;28;20196;-73
2023/05/30 10:07:00;;;;;;;2.92;1.38;;;15.90;99.90;;;;;;4960210;28;20201;-74
2023/05/30 10:09:31;;;;;;;2.15;1.20;;;15.90;99.90;;;;;;4989771;28;20196;-74
2023/05/30 10:12:03;;;;;;;3.08;1.33;;;15.90;99.90;;;;;;4993669;28;20192;-74
2023/05/30 10:14:34;;;;;;;2.22;1.10;;;15.90;99.90;;;;;;4973358;28;20200;-74
2023/05/30 10:17:09;;;;;;;2.25;1.13;;;16.00;99.90;;;;;;4973369;28;20216;-73
2023/05/30 10:19:46;;;;;;;2.15;1.10;;;16.00;99.90;;;;;;4972002;28;20200;-74
2023/05/30 10:22:21;;;;;;;1.83;1.10;;;15.90;99.90;;;;;;4971733;28;20211;-73
2023/05/30 10:24:53;;;;;;;2.50;1.10;;;15.90;99.90;;;;;;4974855;28;20539;-74
2023/05/30 10:27:33;;;;;;;2.90;1.05;;;15.90;99.90;;;;;;4977937;28;20206;-75
2023/05/30 10:30:07;;;;;;;2.85;1.15;;;15.90;99.90;;;;;;4994151;28;20226;-74
2023/05/30 10:32:42;;;;;;;3.45;1.05;;;15.90;99.90;;;;;;4993443;28;20207;-74
2023/05/30 10:35:16;;;;;;;2.50;0.82;;;15.90;99.90;;;;;;4993816;28;20215;-74
2023/05/30 10:37:50;;;;;;;4.88;1.05;;;15.90;99.90;;;;;;4980947;28;20203;-74
2023/05/30 10:40:31;;;;;;;2.08;1.02;;;15.80;99.90;;;;;;4974360;28;20199;-74
2023/05/30 10:43:27;;;;;;;1.20;0.90;;;15.80;99.90;;;;;;4974691;28;20780;-74
2023/05/30 10:46:09;;;;;;;2.85;0.90;;;15.70;99.90;;;;;;4974557;28;20203;-74
2023/05/30 10:48:51;;;;;;;3.97;1.05;;;15.70;99.90;;;;;;4973923;28;20200;-74
2023/05/30 10:51:22;;;;;;;1.50;0.90;;;15.70;99.90;;;;;;4971484;28;20200;-74
2023/05/30 10:53:55;;;;;;;1.65;1.02;;;15.70;99.90;;;;;;4976492;28;20204;-73
2023/05/30 10:56:43;;;;;;;1.92;0.90;;;15.70;99.90;;;;;;4974218;28;20323;-73
2023/05/30 10:59:20;;;;;;;1.95;0.90;;;15.60;99.90;;;;;;4974332;28;20236;-73
2023/05/30 11:02:06;;;;;;;2.03;0.88;;;15.70;99.90;;;;;;4973375;28;20196;-74
2023/05/30 11:04:38;;;;;;;1.70;0.98;;;15.60;99.90;;;;;;4973000;28;20210;-74
2023/05/30 11:07:11;;;;;;;1.20;0.80;;;15.60;99.90;;;;;;4973367;28;20236;-74
2023/05/30 11:10:02;;;;;;;3.00;1.00;;;15.60;99.90;;;;;;4974296;28;20597;-74
2023/05/30 11:12:33;;;;;;;2.30;0.90;;;15.50;99.90;;;;;;4973617;28;20204;-74
2023/05/30 11:15:06;;;;;;;2.72;1.15;;;15.50;99.90;;;;;;4974191;28;20193;-74
2023/05/30 11:17:38;;;;;;;1.65;0.85;;;15.40;99.90;;;;;;4974362;28;20203;-74
2023/05/30 11:20:14;;;;;;;1.73;1.00;;;15.40;99.90;;;;;;4974002;28;20559;-73
2023/05/30 11:23:22;;;;;;;2.15;1.20;;;15.40;99.90;;;;;;4973334;28;20557;-74
2023/05/30 11:25:56;;;;;;;2.08;1.20;;;15.30;99.90;;;;;;4972625;28;20208;-74
2023/05/30 11:28:40;;;;;;;3.35;1.30;;;15.30;99.90;;;;;;4974386;28;20204;-73
2023/05/30 11:31:21;;;;;;;1.55;1.20;;;15.30;99.90;;;;;;4974132;28;20199;-74
2023/05/30 11:33:53;;;;;;;2.47;1.20;;;15.30;99.90;;;;;;4972775;28;20200;-74
2023/05/30 11:36:24;;;;;;;1.80;1.00;;;15.20;99.90;;;;;;4973183;28;20224;-73
2023/05/30 11:38:55;;;;;;;2.90;1.30;;;15.20;99.90;;;;;;4973224;28;20539;-74
2023/05/30 11:41:29;;;;;;;2.35;1.10;;;15.20;99.90;;;;;;4974170;28;20547;-74
2023/05/30 11:44:00;;;;;;;2.65;1.10;;;15.10;99.90;;;;;;4973249;28;20687;-74
2023/05/30 11:46:31;;;;;;;1.67;1.00;;;15.10;99.90;;;;;;4977442;28;20204;-74
2023/05/30 11:49:07;;;;;;;3.55;1.17;;;15.10;99.90;;;;;;4977450;28;20198;-73
2023/05/30 11:51:42;;;;;;;4.25;1.60;;;15.10;99.90;;;;;;4958245;28;20204;-73
2023/05/30 11:54:14;;;;;;;2.70;1.13;;;15.10;99.90;;;;;;4971049;28;20207;-73
2023/05/30 11:56:47;;;;;;;2.90;1.27;;;15.00;99.90;;;;;;4977339;28;20228;-74
2023/05/30 11:59:24;;;;;;;1.90;1.00;;;15.00;99.90;;;;;;4977027;28;20696;-73
2023/05/30 12:01:57;;;;;;;1.77;1.08;;;14.90;99.90;;;;;;4977286;28;20199;-73
2023/05/30 12:04:30;;;;;;;2.13;1.17;;;14.80;99.90;;;;;;4974697;28;20199;-74
2023/05/30 12:07:03;;;;;;;2.63;1.65;;;14.70;99.90;;;;;;4977247;28;20199;-73
2023/05/30 12:09:39;;;;;;;2.65;1.60;;;14.70;99.90;;;;;;4977100;28;20204;-73
2023/05/30 12:12:12;;;;;;;4.07;1.88;;;14.60;99.90;;;;;;4977251;28;20198;-73
2023/05/30 12:14:58;;;;;;;3.40;1.70;;;14.50;99.90;;;;;;4975550;28;20196;-73
2023/05/30 12:17:29;;;;;;;4.00;2.03;;;14.40;99.90;;;;;;4976846;28;20239;-74
2023/05/30 12:20:06;;;;;;;3.03;1.90;;;14.40;99.90;;;;;;4975965;28;20552;-73
2023/05/30 12:22:37;;;;;;;4.80;2.20;;;14.20;99.90;;;;;;4976350;28;20727;-74
2023/05/30 12:25:09;;;;;;;4.32;2.42;;;14.20;99.90;;;;;;4976166;28;20203;-73
2023/05/30 12:27:46;;;;;;;4.10;2.05;;;14.20;99.90;;;;;;4975876;28;20255;-73
2023/05/30 12:30:19;;;;;;;4.20;1.80;;;14.10;99.90;;;;;;4967848;28;20206;-72
2023/05/30 12:32:53;;;;;;;4.57;2.30;;;14.10;99.90;;;;;;4975032;28;20719;-73
2023/05/30 12:35:28;;;;;;;4.65;2.28;;;14.00;99.90;;;;;;4973534;28;20597;-73
2023/05/30 12:38:01;;;;;;;4.53;2.50;;;14.00;99.90;;;;;;4964984;28;20211;-72
2023/05/30 12:40:32;;;;;;;4.57;2.45;;;13.90;99.90;;;;;;4975185;28;20204;-72
2023/05/30 12:43:05;;;;;;;4.90;2.38;;;14.00;99.90;;;;;;4974968;28;20638;-72
2023/05/30 12:45:41;;;;;;;3.47;2.22;;;13.90;99.90;;;;;;4974189;28;20207;-72
2023/05/30 12:48:12;;;;;;;5.05;2.42;;;13.90;99.90;;;;;;4973600;28;20207;-72
2023/05/30 12:50:43;;;;;;;5.68;2.80;;;13.80;99.90;;;;;;4973624;28;20200;-72
2023/05/30 12:53:14;;;;;;;6.13;2.92;;;13.80;99.90;;;;;;4975299;28;20656;-73
2023/05/30 12:55:45;;;;;;;7.13;3.00;;;13.80;99.90;;;;;;4973757;28;20196;-73
2023/05/30 12:58:18;;;;;;;5.35;2.80;;;13.80;99.90;;;;;;4975073;28;20208;-72
2023/05/30 13:00:49;;;;;;;4.60;2.80;;;13.70;99.90;;;;;;4974204;28;20602;-73
2023/05/30 13:03:21;;;;;;;7.03;2.78;;;13.70;99.90;;;;;;4974407;28;20227;-73
2023/05/30 13:05:52;;;;;;;6.50;3.00;;;13.70;99.90;;;;;;4975459;28;20618;-72
2023/05/30 13:08:23;;;;;;;5.25;2.90;;;13.70;99.90;;;;;;4974823;28;20204;-72
2023/05/30 13:10:54;;;;;;;7.55;3.45;;;13.70;99.90;;;;;;4974065;28;20211;-73
2023/05/30 13:13:28;;;;;;;8.65;3.42;;;13.70;99.90;;;;;;4974420;28;20203;-73
2023/05/30 13:15:59;;;;;;;7.00;3.50;;;13.70;99.90;;;;;;4974399;28;20196;-72
2023/05/30 13:18:30;;;;;;;5.88;2.83;;;13.60;99.90;;;;;;4973910;28;20715;-72